createdAt,value
2019-03-27T00:04:13.160Z,10.00
2019-03-27T00:09:44.155Z,10.03
2019-03-27T00:15:12.982Z,9.99
2019-03-27T00:20:45.541Z,10.10
2019-03-27T00:26:08.027Z,9.95
2019-03-27T00:31:31.137Z,9.95
2019-03-27T00:36:54.203Z,9.92
2019-03-27T00:42:19.809Z,9.85
2019-03-27T00:47:43.156Z,9.71
2019-03-27T00:53:07.942Z,9.57
2019-03-27T00:58:34.822Z,9.44
2019-03-27T01:03:58.537Z,9.37
2019-03-27T01:09:22.483Z,9.45
2019-03-27T01:14:44.464Z,9.49
2019-03-27T01:20:07.777Z,9.40
2019-03-27T01:25:31.705Z,9.40
2019-03-27T01:30:55.155Z,9.45
2019-03-27T01:36:17.585Z,9.50
2019-03-27T01:41:41.431Z,9.46
2019-03-27T01:47:04.591Z,9.54
2019-03-27T01:52:27.215Z,9.59
2019-03-27T01:57:51.237Z,9.60
2019-03-27T02:03:15.125Z,9.59
2019-03-27T02:08:37.206Z,9.45
2019-03-27T02:13:59.344Z,9.49
2019-03-27T02:19:23.016Z,9.57
2019-03-27T02:24:45.732Z,9.46
2019-03-27T02:30:08.646Z,9.52
2019-03-27T02:35:30.945Z,9.48
2019-03-27T02:40:56.052Z,9.50
2019-03-27T02:46:24.909Z,9.52
2019-03-27T02:51:47.250Z,9.63
2019-03-27T02:57:11.173Z,9.56
2019-03-27T03:02:35.076Z,9.58
2019-03-27T03:07:57.711Z,9.57
2019-03-27T03:13:23.617Z,9.67
2019-03-27T03:18:46.586Z,9.70
2019-03-27T03:24:10.634Z,9.56
2019-03-27T03:29:35.971Z,9.59
2019-03-27T03:34:59.397Z,9.47
2019-03-27T03:40:21.875Z,9.46
2019-03-27T03:45:44.541Z,9.35
2019-03-27T03:51:07.936Z,9.48
2019-03-27T03:56:32.522Z,9.37
2019-03-27T04:01:55.314Z,9.27
2019-03-27T04:07:18.621Z,9.32
2019-03-27T04:12:42.432Z,9.23
2019-03-27T04:18:16.299Z,9.22
2019-03-27T04:23:39.792Z,9.30
2019-03-27T04:29:12.985Z,9.20
2019-03-27T04:34:35.526Z,9.19
2019-03-27T04:39:58.436Z,9.24
2019-03-27T04:45:21.198Z,9.29
2019-03-27T04:50:44.161Z,9.14
2019-03-27T04:56:07.526Z,9.09
2019-03-27T05:01:32.528Z,9.12
2019-03-27T05:06:54.538Z,9.13
2019-03-27T05:12:16.566Z,9.09
2019-03-27T05:17:45.990Z,8.90
2019-03-27T05:23:02.550Z,8.74
2019-03-27T05:28:24.949Z,8.79
2019-03-27T05:33:46.937Z,8.77
2019-03-27T05:39:09.088Z,8.85
2019-03-27T05:44:31.366Z,8.81
2019-03-27T05:49:53.530Z,8.84
2019-03-27T05:55:16.745Z,9.02
2019-03-27T06:00:39.380Z,8.94
2019-03-27T06:06:01.624Z,9.03
2019-03-27T06:11:24.694Z,8.92
2019-03-27T06:16:47.536Z,8.95
2019-03-27T06:22:09.912Z,8.97
2019-03-27T06:27:32.651Z,8.90
2019-03-27T06:32:55.574Z,9.00
2019-03-27T06:38:19.008Z,8.92
2019-03-27T06:43:42.358Z,8.87
2019-03-27T06:49:06.329Z,8.88
2019-03-27T06:54:28.134Z,8.61
2019-03-27T06:59:50.433Z,8.94
2019-03-27T07:05:14.119Z,8.89
2019-03-27T07:10:36.421Z,8.93
2019-03-27T07:15:58.545Z,9.10
2019-03-27T07:21:20.914Z,9.15
2019-03-27T07:26:42.960Z,9.11
2019-03-27T07:32:04.892Z,9.35
2019-03-27T07:37:28.410Z,9.26
2019-03-27T07:42:50.853Z,9.42
2019-03-27T07:48:13.024Z,9.60
2019-03-27T07:53:35.860Z,9.85
2019-03-27T07:58:59.777Z,10.05
2019-03-27T08:04:21.684Z,10.34
2019-03-27T08:09:44.664Z,10.19
2019-03-27T08:15:09.615Z,10.29
2019-03-27T08:20:31.558Z,10.29
2019-03-27T08:25:53.600Z,10.52
2019-03-27T08:31:16.756Z,10.51
2019-03-27T08:36:38.809Z,10.67
2019-03-27T08:42:01.047Z,10.89
2019-03-27T08:47:23.504Z,10.94
2019-03-27T08:52:45.730Z,11.09
2019-03-27T08:58:07.453Z,11.29
2019-03-27T09:03:29.915Z,11.35
2019-03-27T09:08:52.100Z,11.49
2019-03-27T09:14:14.239Z,11.76
2019-03-27T09:19:36.546Z,12.01
2019-03-27T09:24:59.988Z,12.18
2019-03-27T09:30:22.601Z,12.20
2019-03-27T09:35:44.996Z,12.29
2019-03-27T09:41:07.692Z,12.13
2019-03-27T09:46:29.882Z,11.97
2019-03-27T09:51:52.102Z,11.69
2019-03-27T09:57:18.431Z,11.65
2019-03-27T10:02:40.618Z,11.87
2019-03-27T10:08:02.978Z,12.11
2019-03-27T10:13:25.963Z,12.36
2019-03-27T10:18:49.301Z,12.35
2019-03-27T10:24:12.116Z,12.54
2019-03-27T10:29:44.626Z,12.62
2019-03-27T10:35:07.794Z,12.76
2019-03-27T10:40:30.116Z,12.90
2019-03-27T10:45:51.973Z,12.87
2019-03-27T10:51:15.072Z,12.95
2019-03-27T10:56:38.445Z,13.08
2019-03-27T11:02:00.868Z,13.41
2019-03-27T11:07:23.859Z,13.47
2019-03-27T11:12:47.479Z,13.69
2019-03-27T11:18:12.217Z,13.73
2019-03-27T11:23:36.368Z,13.74
2019-03-27T11:28:59.292Z,14.20
2019-03-27T11:34:21.843Z,14.02
2019-03-27T11:39:43.990Z,14.53
2019-03-27T11:45:08.452Z,14.44
2019-03-27T11:50:43.791Z,14.56
2019-03-27T11:55:55.408Z,14.57
2019-03-27T12:01:18.091Z,14.17
2019-03-27T12:06:40.750Z,14.44
2019-03-27T12:12:03.719Z,14.42
2019-03-27T12:17:26.831Z,14.49
2019-03-27T12:22:57.718Z,14.36
2019-03-27T12:28:13.854Z,14.13
2019-03-27T12:33:36.744Z,14.23
2019-03-27T12:38:59.035Z,13.94
2019-03-27T12:44:21.258Z,14.46
2019-03-27T12:49:44.456Z,14.17
2019-03-27T12:55:07.495Z,14.02
2019-03-27T13:00:29.715Z,14.04
2019-03-27T13:05:56.712Z,13.95
2019-03-27T13:11:19.765Z,13.92
2019-03-27T13:16:43.570Z,14.02
2019-03-27T13:22:06.208Z,13.99
2019-03-27T13:27:30.444Z,13.94
2019-03-27T13:32:56.956Z,14.14
2019-03-27T13:38:01.589Z,14.19
2019-03-27T13:43:05.464Z,14.09
2019-03-27T13:48:28.275Z,13.99
2019-03-27T13:54:00.994Z,14.16
2019-03-27T13:59:23.785Z,14.14
2019-03-27T14:04:46.800Z,14.19
2019-03-27T14:10:09.375Z,14.27
2019-03-27T14:15:31.976Z,14.08
2019-03-27T14:20:55.109Z,13.99
2019-03-27T14:26:17.827Z,13.79
2019-03-27T14:31:42.182Z,13.89
2019-03-27T14:37:05.360Z,13.87
2019-03-27T14:42:29.908Z,13.71
2019-03-27T14:47:52.837Z,13.45
2019-03-27T14:53:14.760Z,13.36
2019-03-27T14:58:37.347Z,13.23
2019-03-27T15:04:02.334Z,13.23
2019-03-27T15:09:26.005Z,13.28
2019-03-27T15:14:48.951Z,12.96
2019-03-27T15:20:12.682Z,13.11
2019-03-27T15:25:35.059Z,13.14
2019-03-27T15:30:39.602Z,13.01
2019-03-27T15:35:44.728Z,13.08
2019-03-27T15:41:07.339Z,13.18
2019-03-27T15:46:11.027Z,13.07
2019-03-27T15:51:14.645Z,12.87
2019-03-27T15:56:18.091Z,12.67
2019-03-27T16:01:21.719Z,12.60
2019-03-27T16:13:23.485Z,12.39
2019-03-27T16:59:27.535Z,11.95
2019-03-27T17:04:49.952Z,11.91
2019-03-27T17:11:15.782Z,11.91
2019-03-27T17:16:43.725Z,11.89
2019-03-27T17:22:18.550Z,11.87
2019-03-27T17:27:29.720Z,11.82
2019-03-27T17:32:51.914Z,11.76
2019-03-27T17:38:19.685Z,11.71
2019-03-27T17:43:48.250Z,11.66
2019-03-27T17:49:10.501Z,11.59
2019-03-27T17:54:32.344Z,11.58
2019-03-27T18:00:22.154Z,11.54
2019-03-27T18:05:52.401Z,11.57
2019-03-27T18:11:18.673Z,11.54
2019-03-27T18:16:42.288Z,11.44
2019-03-27T18:22:31.609Z,11.41
2019-03-27T18:28:59.379Z,11.37
2019-03-27T18:41:27.044Z,11.30
2019-03-27T18:54:27.259Z,11.13
2019-03-27T19:00:22.996Z,11.00
2019-03-27T19:06:46.309Z,10.90
2019-03-27T19:12:37.535Z,10.65
2019-03-27T19:18:00.316Z,10.64
2019-03-27T23:03:30.251Z,7.21
2019-03-27T23:54:55.561Z,7.86
